Stations météo

Publicité
Toulon Arsenal, France (7660): Température de l'air & dewpoint: 13.04.2019 02:00:00 - 19.04.2019 02:00:00 (CEST)Toulon Arsenal, France (7660): Vitesse du vent & gusts: 13.04.2019 02:00:00 - 19.04.2019 02:00:00 (CEST)Toulon Arsenal, France (7660): Direction du vent: 13.04.2019 02:00:00 - 19.04.2019 02:00:00 (CEST)Toulon Arsenal, France (7660): Quantités de précipitations: 13.04.2019 02:00:00 - 19.04.2019 02:00:00 (CEST)
Date & Time tt [°C] td [°C] ff [km/h] ff [knt] fx [km/h] fx [knt] dd rr [mm]
19.04.2019 02:00:00 - - - - - - - -
19.04.2019 01:00:00 19,1 2,9 16 9 44 24 E 0,0
19.04.2019 00:00:00 19,3 1,7 15 8 41 22 E 0,0
18.04.2019 23:00:00 19,4 2,7 13 7 37 20 E 0,0
18.04.2019 22:00:00 19,5 1,4 13 7 35 19 E 0,0
18.04.2019 21:00:00 19,0 0,5 13 7 35 19 E 0,0
18.04.2019 20:00:00 19,2 1,2 16 9 41 22 E -
18.04.2019 19:00:00 20,4 0,8 18 10 44 24 E 0,0
18.04.2019 18:00:00 20,8 3,5 16 9 42 23 E 0,0
18.04.2019 17:00:00 17,9 10,8 22 12 37 20 SE 0,0
18.04.2019 16:00:00 17,8 11,1 24 13 37 20 SE 0,0
18.04.2019 15:00:00 18,2 9,8 22 12 46 25 ESE 0,0
18.04.2019 14:00:00 18,0 9,9 24 13 46 25 ESE -
18.04.2019 13:00:00 18,8 10,1 22 12 42 23 ESE 0,0
18.04.2019 12:00:00 19,1 6,9 26 14 44 24 ESE 0,0
18.04.2019 11:00:00 19,0 4,3 16 9 31 17 ESE 0,0
18.04.2019 10:00:00 17,6 4,2 13 7 29 16 E 0,0
18.04.2019 09:00:00 16,1 4,5 9 5 21 11 ESE 0,0
18.04.2019 08:00:00 9,9 7,0 2 1 4 2 NW -
18.04.2019 07:00:00 8,3 5,9 2 1 5 3 NNE 0,0
18.04.2019 06:00:00 8,5 6,3 2 1 8 4 NNE 0,0
18.04.2019 05:00:00 8,8 6,4 0 0 5 3 N 0,0
18.04.2019 04:00:00 8,9 7,0 4 2 5 3 NNE 0,0
18.04.2019 03:00:00 9,7 7,8 4 2 8 4 NW 0,0
18.04.2019 02:00:00 10,0 6,9 4 2 8 4 WNW -
18.04.2019 01:00:00 10,6 7,3 4 2 9 5 NNE 0,0
18.04.2019 00:00:00 11,7 7,8 5 3 11 6 N 0,0
17.04.2019 23:00:00 11,6 9,3 4 2 8 4 N 0,0
17.04.2019 22:00:00 12,8 9,8 2 1 11 6 NNE 0,0
17.04.2019 21:00:00 14,1 9,7 4 2 13 7 ESE 0,0
17.04.2019 20:00:00 14,6 9,8 8 4 21 11 SSE -
17.04.2019 19:00:00 15,2 10,2 9 5 18 10 ESE 0,0
17.04.2019 18:00:00 16,0 10,1 11 6 18 10 ESE 0,0
17.04.2019 17:00:00 17,0 10,1 9 5 18 10 SSE 0,0
17.04.2019 16:00:00 16,7 9,6 11 6 18 10 SE 0,0
17.04.2019 15:00:00 16,6 10,2 9 5 18 10 ESE 0,0
17.04.2019 14:00:00 16,9 10,3 11 6 18 10 SE -
17.04.2019 13:00:00 15,9 9,8 8 4 24 13 SSE 0,0
17.04.2019 12:00:00 15,8 11,4 16 9 28 15 SE 0,0
17.04.2019 11:00:00 15,4 11,2 13 7 26 14 SE 0,0
17.04.2019 10:00:00 14,8 8,7 16 9 24 13 SE 0,0
17.04.2019 09:00:00 11,5 8,0 2 1 8 4 SW 0,0
17.04.2019 08:00:00 8,1 7,3 0 0 4 2 N -
17.04.2019 07:00:00 6,5 5,8 2 1 9 5 NNW 0,0
17.04.2019 06:00:00 6,4 5,7 0 0 4 2 N 0,0
17.04.2019 05:00:00 6,8 5,9 2 1 4 2 WNW 0,0
17.04.2019 04:00:00 7,0 5,9 2 1 4 2 N 0,0
17.04.2019 03:00:00 7,4 6,2 2 1 4 2 N 0,0
17.04.2019 02:00:00 8,0 6,5 0 0 8 4 N -
17.04.2019 01:00:00 8,9 6,7 2 1 8 4 NW 0,0
17.04.2019 00:00:00 9,2 7,3 2 1 8 4 NNE 0,0
16.04.2019 23:00:00 10,1 7,7 2 1 8 4 NNW 0,0
16.04.2019 22:00:00 11,1 7,8 2 1 8 4 ENE 0,0
16.04.2019 21:00:00 12,4 7,7 2 1 13 7 NW 0,0
16.04.2019 20:00:00 14,6 7,4 9 5 18 10 W -
16.04.2019 19:00:00 14,7 8,2 9 5 18 10 W 0,0
16.04.2019 18:00:00 15,5 7,8 9 5 15 8 WSW 0,0
16.04.2019 17:00:00 15,8 6,8 4 2 15 8 S 0,0
16.04.2019 16:00:00 15,2 6,5 9 5 18 10 S 0,0
16.04.2019 15:00:00 16,1 6,0 4 2 11 6 S 0,0
16.04.2019 14:00:00 15,0 6,8 5 3 15 8 S -
16.04.2019 13:00:00 14,6 6,9 8 4 16 9 S 0,0
16.04.2019 12:00:00 15,4 5,6 8 4 16 9 E 0,0
16.04.2019 11:00:00 14,4 6,2 5 3 13 7 E 0,0
16.04.2019 10:00:00 13,8 6,4 5 3 16 9 E 0,0
16.04.2019 09:00:00 12,7 7,2 5 3 13 7 N 0,0
16.04.2019 08:00:00 12,0 7,5 5 3 13 7 N -
16.04.2019 07:00:00 11,4 7,9 4 2 13 7 NNE 0,2
16.04.2019 06:00:00 11,8 9,2 4 2 18 10 N 0,2
16.04.2019 05:00:00 13,0 9,1 2 1 16 9 N 0,2
16.04.2019 04:00:00 13,9 5,3 2 1 22 12 NE 0,0
16.04.2019 03:00:00 13,6 7,8 8 4 22 12 SE 0,0
16.04.2019 02:00:00 14,6 4,8 8 4 21 11 E -
16.04.2019 01:00:00 14,5 4,5 5 3 16 9 E 0,0
16.04.2019 00:00:00 12,8 6,6 4 2 9 5 ENE 0,0
15.04.2019 23:00:00 12,0 6,7 4 2 9 5 NNE 0,0
15.04.2019 22:00:00 13,2 7,8 2 1 11 6 ENE 0,0
15.04.2019 21:00:00 14,6 8,3 8 4 15 8 ESE 0,0
15.04.2019 20:00:00 15,0 8,2 9 5 22 12 ESE -
15.04.2019 19:00:00 15,2 7,2 15 8 26 14 ESE 0,0
15.04.2019 18:00:00 15,5 9,6 18 10 31 17 SE 0,0
15.04.2019 17:00:00 16,4 7,3 18 10 34 18 ESE 0,0
15.04.2019 16:00:00 16,6 7,5 21 11 41 22 ESE 0,0
15.04.2019 15:00:00 16,7 5,9 22 12 41 22 ESE 0,0
15.04.2019 14:00:00 16,7 5,0 22 12 41 22 ESE -
15.04.2019 13:00:00 16,8 7,2 15 8 24 13 SE 0,0
15.04.2019 12:00:00 16,3 7,0 13 7 22 12 SE 0,0
15.04.2019 11:00:00 15,1 7,6 5 3 13 7 S 0,0
15.04.2019 10:00:00 14,5 7,3 5 3 11 6 ESE 0,0
15.04.2019 09:00:00 11,9 4,4 5 3 9 5 E 0,0
15.04.2019 08:00:00 7,5 5,0 0 0 4 2 N -
15.04.2019 07:00:00 6,4 3,4 0 0 4 2 N 0,0
15.04.2019 06:00:00 7,2 2,7 2 1 8 4 NE 0,0
15.04.2019 05:00:00 8,0 1,8 2 1 15 8 E 0,0
15.04.2019 04:00:00 6,4 1,3 0 0 5 3 N 0,0
15.04.2019 03:00:00 8,5 0,5 5 3 15 8 NNE 0,0
15.04.2019 02:00:00 7,0 0,0 5 3 9 5 N -
15.04.2019 01:00:00 7,4 -0,6 2 1 9 5 N 0,0
15.04.2019 00:00:00 8,9 -1,3 2 1 15 8 N 0,0
14.04.2019 23:00:00 11,3 -4,8 2 1 15 8 SSW 0,0
14.04.2019 22:00:00 11,5 -1,3 4 2 11 6 WNW 0,0
14.04.2019 21:00:00 14,0 2,5 5 3 15 8 S 0,0
14.04.2019 20:00:00 15,6 -8,0 8 4 34 18 WNW -
14.04.2019 19:00:00 17,7 -10,2 13 7 34 18 WNW 0,0
14.04.2019 18:00:00 18,1 -9,0 18 10 37 20 W 0,0
14.04.2019 17:00:00 17,4 -2,3 5 3 52 28 E 0,0
14.04.2019 16:00:00 18,3 -2,6 18 10 46 25 W 0,0
14.04.2019 15:00:00 18,4 -5,0 18 10 42 23 W 0,0
14.04.2019 14:00:00 17,3 -2,4 18 10 41 22 W -
14.04.2019 13:00:00 15,2 -1,0 22 12 41 22 WSW 0,0
14.04.2019 12:00:00 13,5 -1,7 22 12 39 21 SW 0,0
14.04.2019 11:00:00 12,8 -1,9 16 9 39 21 WSW 0,0
14.04.2019 10:00:00 12,9 -4,3 11 6 22 12 W 0,0
14.04.2019 09:00:00 11,1 -7,7 4 2 24 13 W 0,0
14.04.2019 08:00:00 10,8 -5,7 13 7 26 14 WSW -
14.04.2019 07:00:00 11,3 -8,1 9 5 26 14 W 0,0
14.04.2019 06:00:00 12,5 -11,9 8 4 26 14 W 0,0
14.04.2019 05:00:00 13,2 -9,3 8 4 28 15 W 0,0
14.04.2019 04:00:00 14,8 -7,4 9 5 39 21 W 0,0
14.04.2019 03:00:00 14,8 -5,1 8 4 24 13 W 0,0
14.04.2019 02:00:00 14,2 -3,2 8 4 22 12 SW -
14.04.2019 01:00:00 14,9 -5,0 11 6 26 14 WSW 0,0
14.04.2019 00:00:00 16,4 -11,2 13 7 31 17 W 0,0
13.04.2019 23:00:00 15,6 -5,5 9 5 22 12 W 0,0
13.04.2019 22:00:00 16,0 -3,0 9 5 21 11 W 0,0
13.04.2019 21:00:00 16,7 0,7 11 6 26 14 W 0,0
13.04.2019 20:00:00 18,0 -2,9 13 7 28 15 WNW -
13.04.2019 19:00:00 19,3 -0,2 15 8 31 17 W 0,0
13.04.2019 18:00:00 19,5 4,8 15 8 35 19 WSW 0,0
13.04.2019 17:00:00 19,2 4,5 16 9 29 16 WSW 0,0
13.04.2019 16:00:00 18,9 4,6 13 7 26 14 W 0,0
13.04.2019 15:00:00 18,4 6,6 8 4 18 10 SW 0,0
13.04.2019 14:00:00 17,4 8,0 8 4 18 10 SSE -
13.04.2019 13:00:00 16,7 9,1 5 3 16 9 S 0,0
13.04.2019 12:00:00 15,7 9,4 5 3 15 8 SSE 0,0
13.04.2019 11:00:00 15,3 9,6 4 2 9 5 SSE 0,0
13.04.2019 10:00:00 13,6 8,8 4 2 9 5 SE 0,0
13.04.2019 09:00:00 11,0 7,5 4 2 8 4 ESE 0,0
13.04.2019 08:00:00 7,8 7,5 2 1 5 3 W -
13.04.2019 07:00:00 6,8 6,4 0 0 5 3 N 0,0
13.04.2019 06:00:00 7,3 6,7 0 0 4 2 N 0,0
13.04.2019 05:00:00 7,7 7,1 2 1 8 4 NNW 0,0
13.04.2019 04:00:00 8,5 7,7 2 1 5 3 NW 0,0
13.04.2019 03:00:00 9,3 8,5 4 2 9 5 NE 0,0
13.04.2019 02:00:00 9,7 8,3 0 0 8 4 N -

tt = Température de l'air
td = dewpoint
ff = Vitesse du vent
fx = gusts
dd = Direction du vent
rr = Quantités de précipitations

stations d'obs. à proximité